Bontekoning — PH9144 — position and weather

sailwx.info

Track history (hours):
 
Tides and Currents Weather Stations Pressure Air Temp Water Temp Dewpoint Dewpoint Depression Visibility Wind Speed Wind Dir Waves Ship Positions

Bontekoning

Last reported at 2015-May-30 12:33 UTC. Time now 2015-Jul-04 01:36 UTC.
Position N 39°13' E 009°07'.
Warning: this ship's position is 34 days out of date.

; draft 2.6 m.

Type: Sailing vessel. MMSI: 244107000.

Date/timePositionNaut miles runAvg speedWind from/ knotsBaromVisibWave heightAir tempDewpointWater temp
2015-May-30 12:33N 39°13' E 009°07'0 0.0
2015-May-30 11:33N 39°13' E 009°07'0 0.0
2015-May-30 10:33N 39°13' E 009°07'0 0.0
2015-May-30 09:33N 39°13' E 009°07'0 0.0
2015-May-30 08:33N 39°13' E 009°07'0 0.0
2015-May-30 07:33N 39°13' E 009°07'0 0.0
2015-May-30 06:33N 39°13' E 009°07'0 0.0
2015-May-30 05:33N 39°13' E 009°07'0 0.0
2015-May-30 04:33N 39°13' E 009°07'0 0.0
2015-May-30 03:33N 39°13' E 009°07'0 0.0
2015-May-30 02:33N 39°13' E 009°07'0 0.0
2015-May-30 01:33N 39°13' E 009°07'0 0.0
2015-May-30 00:33N 39°13' E 009°07'0 0.0
2015-May-29 23:33N 39°13' E 009°07'0 0.0
2015-May-29 22:33N 39°13' E 009°07'0 0.0
2015-May-29 21:33N 39°13' E 009°07'0 0.0
2015-May-29 20:33N 39°13' E 009°07'0 0.0
2015-May-29 19:33N 39°13' E 009°07'0 0.0
2015-May-29 18:33N 39°13' E 009°07'0 0.0
2015-May-29 17:33N 39°13' E 009°07'0 0.0
2015-May-29 16:33N 39°13' E 009°07'0 0.0
2015-May-29 15:33N 39°13' E 009°07'0 0.0
2015-May-29 14:33N 39°13' E 009°07'2 1.8
2015-May-29 13:33N 39°11' E 009°08'6 6.3
2015-May-29 12:33N 39°09' E 009°15'6 6.0
2015-May-29 11:33N 39°07' E 009°23'7 6.6
2015-May-29 10:33N 39°06' E 009°31'2 1.8
2015-May-29 09:33N 39°07' E 009°32'0 0.0
2015-May-29 08:33N 39°07' E 009°32'0 0.0
2015-May-29 03:20N 39°07' E 009°32'0 0.0
2015-May-29 02:33N 39°07' E 009°32'0 0.0
2015-May-29 01:33N 39°07' E 009°32'0 0.0
2015-May-29 00:32N 39°07' E 009°32'0 0.0
2015-May-28 23:28N 39°07' E 009°32'0 0.0
2015-May-28 22:33N 39°07' E 009°32'0 0.0
2015-May-28 21:33N 39°07' E 009°32'0 0.0
2015-May-28 20:33N 39°07' E 009°32'3 1.6
2015-May-28 18:28N 39°06' E 009°36'7 6.9
2015-May-28 17:26N 39°04' E 009°44'5 6.0
2015-May-28 16:32N 39°01' E 009°51'115 4.3
2015-May-27 13:32N 38°01' E 011°55'4 4.1
2015-May-27 12:33N 38°01' E 012°01'4 3.8
2015-May-27 11:31N 37°59' E 012°05'1 0.6
2015-May-27 10:33N 37°58' E 012°05'0 0.0
2015-May-27 09:33N 37°58' E 012°05'0 0.0
2015-May-27 08:33N 37°58' E 012°05'0 0.0
2015-May-27 07:33N 37°58' E 012°05'0 0.0
2015-May-27 06:33N 37°58' E 012°05'0 0.0
2015-May-27 05:33N 37°58' E 012°05'0 0.0
2015-May-27 04:33N 37°58' E 012°05'0 0.0
2015-May-27 03:33N 37°58' E 012°05'0 0.0
2015-May-27 02:33N 37°58' E 012°05'0 0.0
2015-May-27 01:33N 37°58' E 012°05'0 0.0
2015-May-27 00:33N 37°58' E 012°05'0 0.0
2015-May-26 23:33N 37°58' E 012°05'0 0.0
2015-May-26 22:33N 37°58' E 012°05'0 0.0
2015-May-26 21:33N 37°58' E 012°05'0 0.0
2015-May-26 20:33N 37°58' E 012°05'0 0.0
2015-May-26 19:26N 37°58' E 012°05'0 0.0
2015-May-26 18:28N 37°58' E 012°05'0 0.0
2015-May-26 17:33N 37°58' E 012°05'0 0.0
2015-May-26 16:33N 37°58' E 012°05'0 0.2
2015-May-26 15:33N 37°58' E 012°05'6 5.9
2015-May-26 14:33N 37°54' E 012°11'20 3.4
2015-May-26 08:33N 37°39' E 012°28'5 1.0
2015-May-26 03:07N 37°39' E 012°35'0 0.0
2015-May-26 02:30N 37°39' E 012°35'0 0.0
2015-May-25 23:19N 37°39' E 012°35'0 0.0
2015-May-25 16:30N 37°39' E 012°35'0 0.0
2015-May-25 15:31N 37°39' E 012°35'0 0.0
2015-May-25 14:33N 37°39' E 012°35'4 3.7
2015-May-25 13:33N 37°35' E 012°34'2 2.2
2015-May-25 12:32N 37°35' E 012°36'2 1.7
2015-May-25 11:33N 37°34' E 012°38'4 4.1
2015-May-25 10:33N 37°31' E 012°42'3 2.9
2015-May-25 09:33N 37°33' E 012°45'3 2.7
2015-May-25 08:22N 37°31' E 012°48'43 1.8
2015-May-24 08:05N 37°12' E 013°37'3 3.7
2015-May-24 07:23N 37°11' E 013°40'6 5.4
2015-May-24 06:13N 37°08' E 013°47'4 5.6
2015-May-24 05:31N 37°06' E 013°51'4 4.2
2015-May-24 04:33N 37°06' E 013°56'0 0.0
2015-May-24 03:33N 37°06' E 013°56'0 0.0
2015-May-24 02:33N 37°06' E 013°56'0 0.0
2015-May-24 01:33N 37°06' E 013°56'0 0.0
2015-May-24 00:33N 37°06' E 013°56'0 0.0
2015-May-23 23:33N 37°06' E 013°56'0 0.0
2015-May-23 22:33N 37°06' E 013°56'0 0.0
2015-May-23 21:33N 37°06' E 013°56'0 0.0
2015-May-23 20:33N 37°06' E 013°56'0 0.0
2015-May-23 19:33N 37°06' E 013°56'0 0.0
2015-May-23 18:33N 37°06' E 013°56'0 0.0
2015-May-23 17:33N 37°06' E 013°56'1 0.7
2015-May-23 16:33N 37°05' E 013°57'3 2.7
2015-May-23 15:33N 37°05' E 014°00'2 2.2
2015-May-23 14:33N 37°05' E 014°03'4 3.9
2015-May-23 13:33N 37°03' E 014°07'5 5.4
2015-May-23 12:33N 36°58' E 014°10'6 6.3
2015-May-23 11:33N 36°53' E 014°14'7 6.6
2015-May-23 10:33N 36°46' E 014°16'7 6.9
2015-May-23 09:33N 36°39' E 014°17'3 2.5
2015-May-23 08:33N 36°38' E 014°20'5 5.4
2015-May-23 07:33N 36°41' E 014°26'5 4.2
2015-May-23 06:25N 36°45' E 014°30'3 0.4
2015-May-22 22:33N 36°47' E 014°33'0 0.0
2015-May-22 21:33N 36°47' E 014°33'0 0.0
2015-May-22 20:33N 36°47' E 014°33'0 0.0
2015-May-22 19:33N 36°47' E 014°33'0 0.0
2015-May-22 18:14N 36°47' E 014°33'0 0.0
2015-May-22 17:33N 36°47' E 014°33'0 0.0
2015-May-22 15:19N 36°47' E 014°33'0 0.0
2015-May-22 13:33N 36°47' E 014°33'0 0.0
2015-May-22 12:32N 36°47' E 014°33'0 0.0
2015-May-22 11:16N 36°47' E 014°33'0 0.0
2015-May-22 08:07N 36°47' E 014°33'0 0.0
2015-May-22 02:17N 36°47' E 014°33'0 0.0
2015-May-21 22:28N 36°47' E 014°33'0 0.0
2015-May-21 21:30N 36°47' E 014°33'0 0.0
2015-May-21 20:20N 36°47' E 014°33'0 0.0
2015-May-21 19:33N 36°47' E 014°33'0 0.0
2015-May-21 18:32N 36°47' E 014°33'4 4.5
2015-May-21 17:33N 36°44' E 014°37'6 5.9
2015-May-21 16:28N 36°42' E 014°45'4 3.9
2015-May-21 15:19N 36°43' E 014°50'2 2.1
2015-May-21 14:31N 36°42' E 014°52'5 5.0
2015-May-21 13:30N 36°39' E 014°57'19 6.4
2015-May-21 10:30N 36°51' E 015°16'13 5.7
2015-May-21 08:15N 37°04' E 015°17'0 0.0
2015-May-21 06:30N 37°04' E 015°17'0 0.0
2015-May-21 05:21N 37°04' E 015°17'0 0.0
2015-May-21 02:10N 37°04' E 015°17'0 0.0
2015-May-21 01:33N 37°04' E 015°17'0 0.0
2015-May-21 00:33N 37°04' E 015°17'0 0.0
2015-May-20 23:28N 37°04' E 015°17'0 0.0
2015-May-20 22:33N 37°04' E 015°17'0 0.0
2015-May-20 21:23N 37°04' E 015°17'0 0.0
2015-May-20 20:33N 37°04' E 015°17'0 0.0
2015-May-20 19:33N 37°04' E 015°17'0 0.0
2015-May-20 18:07N 37°04' E 015°17'0 0.0
2015-May-20 14:33N 37°04' E 015°17'  
Track history (hours):
 
Tides and Currents Weather Stations Pressure Air Temp Water Temp Dewpoint Dewpoint Depression Visibility Wind Speed Wind Dir Waves Ship Positions

Bontekoning

Last reported at 2015-May-30 12:33 UTC. Time now 2015-Jul-04 01:36 UTC.
Position N 39°13' E 009°07'.
Warning: this ship's position is 34 days out of date.

; draft 2.6 m.

Type: Sailing vessel. MMSI: 244107000.

Date/timePositionNaut miles runAvg speedWind from/ knotsBaromVisibWave heightAir tempDewpointWater temp
2015-May-30 12:33N 39°13' E 009°07'0 0.0
2015-May-30 11:33N 39°13' E 009°07'0 0.0
2015-May-30 10:33N 39°13' E 009°07'0 0.0
2015-May-30 09:33N 39°13' E 009°07'0 0.0
2015-May-30 08:33N 39°13' E 009°07'0 0.0
2015-May-30 07:33N 39°13' E 009°07'0 0.0
2015-May-30 06:33N 39°13' E 009°07'0 0.0
2015-May-30 05:33N 39°13' E 009°07'0 0.0
2015-May-30 04:33N 39°13' E 009°07'0 0.0
2015-May-30 03:33N 39°13' E 009°07'0 0.0
2015-May-30 02:33N 39°13' E 009°07'0 0.0
2015-May-30 01:33N 39°13' E 009°07'0 0.0
2015-May-30 00:33N 39°13' E 009°07'0 0.0
2015-May-29 23:33N 39°13' E 009°07'0 0.0
2015-May-29 22:33N 39°13' E 009°07'0 0.0
2015-May-29 21:33N 39°13' E 009°07'0 0.0
2015-May-29 20:33N 39°13' E 009°07'0 0.0
2015-May-29 19:33N 39°13' E 009°07'0 0.0
2015-May-29 18:33N 39°13' E 009°07'0 0.0
2015-May-29 17:33N 39°13' E 009°07'0 0.0
2015-May-29 16:33N 39°13' E 009°07'0 0.0
2015-May-29 15:33N 39°13' E 009°07'0 0.0
2015-May-29 14:33N 39°13' E 009°07'2 1.8
2015-May-29 13:33N 39°11' E 009°08'6 6.3
2015-May-29 12:33N 39°09' E 009°15'6 6.0
2015-May-29 11:33N 39°07' E 009°23'7 6.6
2015-May-29 10:33N 39°06' E 009°31'2 1.8
2015-May-29 09:33N 39°07' E 009°32'0 0.0
2015-May-29 08:33N 39°07' E 009°32'0 0.0
2015-May-29 03:20N 39°07' E 009°32'0 0.0
2015-May-29 02:33N 39°07' E 009°32'0 0.0
2015-May-29 01:33N 39°07' E 009°32'0 0.0
2015-May-29 00:32N 39°07' E 009°32'0 0.0
2015-May-28 23:28N 39°07' E 009°32'0 0.0
2015-May-28 22:33N 39°07' E 009°32'0 0.0
2015-May-28 21:33N 39°07' E 009°32'0 0.0
2015-May-28 20:33N 39°07' E 009°32'3 1.6
2015-May-28 18:28N 39°06' E 009°36'7 6.9
2015-May-28 17:26N 39°04' E 009°44'5 6.0
2015-May-28 16:32N 39°01' E 009°51'115 4.3
2015-May-27 13:32N 38°01' E 011°55'4 4.1
2015-May-27 12:33N 38°01' E 012°01'4 3.8
2015-May-27 11:31N 37°59' E 012°05'1 0.6
2015-May-27 10:33N 37°58' E 012°05'0 0.0
2015-May-27 09:33N 37°58' E 012°05'0 0.0
2015-May-27 08:33N 37°58' E 012°05'0 0.0
2015-May-27 07:33N 37°58' E 012°05'0 0.0
2015-May-27 06:33N 37°58' E 012°05'0 0.0
2015-May-27 05:33N 37°58' E 012°05'0 0.0
2015-May-27 04:33N 37°58' E 012°05'0 0.0
2015-May-27 03:33N 37°58' E 012°05'0 0.0
2015-May-27 02:33N 37°58' E 012°05'0 0.0
2015-May-27 01:33N 37°58' E 012°05'0 0.0
2015-May-27 00:33N 37°58' E 012°05'0 0.0
2015-May-26 23:33N 37°58' E 012°05'0 0.0
2015-May-26 22:33N 37°58' E 012°05'0 0.0
2015-May-26 21:33N 37°58' E 012°05'0 0.0
2015-May-26 20:33N 37°58' E 012°05'0 0.0
2015-May-26 19:26N 37°58' E 012°05'0 0.0
2015-May-26 18:28N 37°58' E 012°05'0 0.0
2015-May-26 17:33N 37°58' E 012°05'0 0.0
2015-May-26 16:33N 37°58' E 012°05'0 0.2
2015-May-26 15:33N 37°58' E 012°05'6 5.9
2015-May-26 14:33N 37°54' E 012°11'20 3.4
2015-May-26 08:33N 37°39' E 012°28'5 1.0
2015-May-26 03:07N 37°39' E 012°35'0 0.0
2015-May-26 02:30N 37°39' E 012°35'0 0.0
2015-May-25 23:19N 37°39' E 012°35'0 0.0
2015-May-25 16:30N 37°39' E 012°35'0 0.0
2015-May-25 15:31N 37°39' E 012°35'0 0.0
2015-May-25 14:33N 37°39' E 012°35'4 3.7
2015-May-25 13:33N 37°35' E 012°34'2 2.2
2015-May-25 12:32N 37°35' E 012°36'2 1.7
2015-May-25 11:33N 37°34' E 012°38'4 4.1
2015-May-25 10:33N 37°31' E 012°42'3 2.9
2015-May-25 09:33N 37°33' E 012°45'3 2.7
2015-May-25 08:22N 37°31' E 012°48'43 1.8
2015-May-24 08:05N 37°12' E 013°37'3 3.7
2015-May-24 07:23N 37°11' E 013°40'6 5.4
2015-May-24 06:13N 37°08' E 013°47'4 5.6
2015-May-24 05:31N 37°06' E 013°51'4 4.2
2015-May-24 04:33N 37°06' E 013°56'0 0.0
2015-May-24 03:33N 37°06' E 013°56'0 0.0
2015-May-24 02:33N 37°06' E 013°56'0 0.0
2015-May-24 01:33N 37°06' E 013°56'0 0.0
2015-May-24 00:33N 37°06' E 013°56'0 0.0
2015-May-23 23:33N 37°06' E 013°56'0 0.0
2015-May-23 22:33N 37°06' E 013°56'0 0.0
2015-May-23 21:33N 37°06' E 013°56'0 0.0
2015-May-23 20:33N 37°06' E 013°56'0 0.0
2015-May-23 19:33N 37°06' E 013°56'0 0.0
2015-May-23 18:33N 37°06' E 013°56'0 0.0
2015-May-23 17:33N 37°06' E 013°56'1 0.7
2015-May-23 16:33N 37°05' E 013°57'3 2.7
2015-May-23 15:33N 37°05' E 014°00'2 2.2
2015-May-23 14:33N 37°05' E 014°03'4 3.9
2015-May-23 13:33N 37°03' E 014°07'5 5.4
2015-May-23 12:33N 36°58' E 014°10'6 6.3
2015-May-23 11:33N 36°53' E 014°14'7 6.6
2015-May-23 10:33N 36°46' E 014°16'7 6.9
2015-May-23 09:33N 36°39' E 014°17'3 2.5
2015-May-23 08:33N 36°38' E 014°20'5 5.4
2015-May-23 07:33N 36°41' E 014°26'5 4.2
2015-May-23 06:25N 36°45' E 014°30'3 0.4
2015-May-22 22:33N 36°47' E 014°33'0 0.0
2015-May-22 21:33N 36°47' E 014°33'0 0.0
2015-May-22 20:33N 36°47' E 014°33'0 0.0
2015-May-22 19:33N 36°47' E 014°33'0 0.0
2015-May-22 18:14N 36°47' E 014°33'0 0.0
2015-May-22 17:33N 36°47' E 014°33'0 0.0
2015-May-22 15:19N 36°47' E 014°33'0 0.0
2015-May-22 13:33N 36°47' E 014°33'0 0.0
2015-May-22 12:32N 36°47' E 014°33'0 0.0
2015-May-22 11:16N 36°47' E 014°33'0 0.0
2015-May-22 08:07N 36°47' E 014°33'0 0.0
2015-May-22 02:17N 36°47' E 014°33'0 0.0
2015-May-21 22:28N 36°47' E 014°33'0 0.0
2015-May-21 21:30N 36°47' E 014°33'0 0.0
2015-May-21 20:20N 36°47' E 014°33'0 0.0
2015-May-21 19:33N 36°47' E 014°33'0 0.0
2015-May-21 18:32N 36°47' E 014°33'4 4.5
2015-May-21 17:33N 36°44' E 014°37'6 5.9
2015-May-21 16:28N 36°42' E 014°45'4 3.9
2015-May-21 15:19N 36°43' E 014°50'2 2.1
2015-May-21 14:31N 36°42' E 014°52'5 5.0
2015-May-21 13:30N 36°39' E 014°57'19 6.4
2015-May-21 10:30N 36°51' E 015°16'13 5.7
2015-May-21 08:15N 37°04' E 015°17'0 0.0
2015-May-21 06:30N 37°04' E 015°17'0 0.0
2015-May-21 05:21N 37°04' E 015°17'0 0.0
2015-May-21 02:10N 37°04' E 015°17'0 0.0
2015-May-21 01:33N 37°04' E 015°17'0 0.0
2015-May-21 00:33N 37°04' E 015°17'0 0.0
2015-May-20 23:28N 37°04' E 015°17'0 0.0
2015-May-20 22:33N 37°04' E 015°17'0 0.0
2015-May-20 21:23N 37°04' E 015°17'0 0.0
2015-May-20 20:33N 37°04' E 015°17'0 0.0
2015-May-20 19:33N 37°04' E 015°17'0 0.0
2015-May-20 18:07N 37°04' E 015°17'0 0.0
2015-May-20 14:33N 37°04' E 015°17'  

Dump ship's entire track history